sensor_id;sensor_type;location;lat;lon;timestamp;P1;durP1;ratioP1;P2;durP2;ratioP2
60665;SDS011;59128;44.642;21.188;2022-07-21T00:00:58;9.27;;;4.70;;
60665;SDS011;59128;44.642;21.188;2022-07-21T00:03:24;7.50;;;4.85;;
60665;SDS011;59128;44.642;21.188;2022-07-21T00:05:51;7.57;;;4.50;;
60665;SDS011;59128;44.642;21.188;2022-07-21T00:08:17;8.07;;;4.70;;
60665;SDS011;59128;44.642;21.188;2022-07-21T00:10:43;7.93;;;4.73;;
60665;SDS011;59128;44.642;21.188;2022-07-21T00:13:09;8.55;;;4.55;;
60665;SDS011;59128;44.642;21.188;2022-07-21T00:15:35;10.93;;;4.60;;
60665;SDS011;59128;44.642;21.188;2022-07-21T00:18:01;18.30;;;5.38;;
60665;SDS011;59128;44.642;21.188;2022-07-21T00:20:27;14.63;;;4.93;;
60665;SDS011;59128;44.642;21.188;2022-07-21T00:22:55;15.95;;;5.40;;
60665;SDS011;59128;44.642;21.188;2022-07-21T00:25:21;19.13;;;5.68;;
60665;SDS011;59128;44.642;21.188;2022-07-21T00:27:47;15.75;;;5.57;;
60665;SDS011;59128;44.642;21.188;2022-07-21T00:30:13;21.85;;;5.78;;
60665;SDS011;59128;44.642;21.188;2022-07-21T00:32:40;9.43;;;4.55;;
60665;SDS011;59128;44.642;21.188;2022-07-21T00:35:06;15.02;;;5.45;;
60665;SDS011;59128;44.642;21.188;2022-07-21T00:37:33;10.10;;;5.15;;
60665;SDS011;59128;44.642;21.188;2022-07-21T00:39:59;8.75;;;4.53;;
60665;SDS011;59128;44.642;21.188;2022-07-21T00:42:27;10.43;;;5.28;;
60665;SDS011;59128;44.642;21.188;2022-07-21T00:44:54;10.57;;;5.03;;
60665;SDS011;59128;44.642;21.188;2022-07-21T00:47:24;8.85;;;4.97;;
60665;SDS011;59128;44.642;21.188;2022-07-21T00:49:50;11.27;;;5.50;;
60665;SDS011;59128;44.642;21.188;2022-07-21T00:52:16;10.00;;;5.10;;
60665;SDS011;59128;44.642;21.188;2022-07-21T00:54:43;7.95;;;4.80;;
60665;SDS011;59128;44.642;21.188;2022-07-21T00:57:09;7.43;;;4.90;;
60665;SDS011;59128;44.642;21.188;2022-07-21T00:59:36;8.73;;;5.03;;
60665;SDS011;59128;44.642;21.188;2022-07-21T01:02:02;6.93;;;5.47;;
60665;SDS011;59128;44.642;21.188;2022-07-21T01:04:28;6.82;;;4.85;;
60665;SDS011;59128;44.642;21.188;2022-07-21T01:06:54;6.47;;;5.15;;
60665;SDS011;59128;44.642;21.188;2022-07-21T01:09:21;8.83;;;5.23;;
60665;SDS011;59128;44.642;21.188;2022-07-21T01:11:47;7.78;;;5.00;;
60665;SDS011;59128;44.642;21.188;2022-07-21T01:14:13;7.38;;;5.20;;
60665;SDS011;59128;44.642;21.188;2022-07-21T01:16:40;8.38;;;4.82;;
60665;SDS011;59128;44.642;21.188;2022-07-21T01:19:06;7.43;;;4.88;;
60665;SDS011;59128;44.642;21.188;2022-07-21T01:21:37;7.40;;;4.85;;
60665;SDS011;59128;44.642;21.188;2022-07-21T01:24:03;7.68;;;5.07;;
60665;SDS011;59128;44.642;21.188;2022-07-21T01:26:30;8.90;;;5.43;;
60665;SDS011;59128;44.642;21.188;2022-07-21T01:28:56;5.83;;;4.77;;
60665;SDS011;59128;44.642;21.188;2022-07-21T01:31:23;7.45;;;5.10;;
60665;SDS011;59128;44.642;21.188;2022-07-21T01:33:49;7.13;;;4.90;;
60665;SDS011;59128;44.642;21.188;2022-07-21T01:36:16;10.02;;;4.63;;
60665;SDS011;59128;44.642;21.188;2022-07-21T01:38:42;10.88;;;4.65;;
60665;SDS011;59128;44.642;21.188;2022-07-21T01:41:27;7.88;;;4.45;;
60665;SDS011;59128;44.642;21.188;2022-07-21T01:43:58;7.57;;;3.88;;
60665;SDS011;59128;44.642;21.188;2022-07-21T01:46:25;7.07;;;4.35;;
60665;SDS011;59128;44.642;21.188;2022-07-21T01:48:51;6.65;;;3.90;;
60665;SDS011;59128;44.642;21.188;2022-07-21T01:51:17;6.95;;;3.53;;
60665;SDS011;59128;44.642;21.188;2022-07-21T01:53:43;7.03;;;4.00;;
60665;SDS011;59128;44.642;21.188;2022-07-21T01:56:09;6.60;;;3.72;;
60665;SDS011;59128;44.642;21.188;2022-07-21T01:58:35;6.07;;;3.83;;
60665;SDS011;59128;44.642;21.188;2022-07-21T02:01:01;6.57;;;3.58;;
60665;SDS011;59128;44.642;21.188;2022-07-21T02:03:27;7.57;;;4.20;;
60665;SDS011;59128;44.642;21.188;2022-07-21T02:05:59;5.30;;;3.58;;
60665;SDS011;59128;44.642;21.188;2022-07-21T02:08:25;6.03;;;3.30;;
60665;SDS011;59128;44.642;21.188;2022-07-21T02:10:52;6.43;;;3.50;;
60665;SDS011;59128;44.642;21.188;2022-07-21T02:13:18;5.23;;;3.27;;
60665;SDS011;59128;44.642;21.188;2022-07-21T02:15:44;4.73;;;3.30;;
60665;SDS011;59128;44.642;21.188;2022-07-21T02:18:10;4.38;;;3.03;;
60665;SDS011;59128;44.642;21.188;2022-07-21T02:20:36;5.60;;;3.17;;
60665;SDS011;59128;44.642;21.188;2022-07-21T02:23:02;5.25;;;2.88;;
60665;SDS011;59128;44.642;21.188;2022-07-21T02:25:28;6.35;;;3.20;;
60665;SDS011;59128;44.642;21.188;2022-07-21T02:27:54;5.57;;;2.90;;
60665;SDS011;59128;44.642;21.188;2022-07-21T02:30:20;4.25;;;3.28;;
60665;SDS011;59128;44.642;21.188;2022-07-21T02:32:46;5.78;;;3.03;;
60665;SDS011;59128;44.642;21.188;2022-07-21T02:35:12;6.00;;;3.30;;
60665;SDS011;59128;44.642;21.188;2022-07-21T02:37:39;5.78;;;2.85;;
60665;SDS011;59128;44.642;21.188;2022-07-21T02:40:05;5.68;;;2.83;;
60665;SDS011;59128;44.642;21.188;2022-07-21T02:42:31;6.40;;;3.43;;
60665;SDS011;59128;44.642;21.188;2022-07-21T02:44:57;5.57;;;3.37;;
60665;SDS011;59128;44.642;21.188;2022-07-21T02:47:23;5.00;;;2.93;;
60665;SDS011;59128;44.642;21.188;2022-07-21T02:49:50;5.38;;;3.17;;
60665;SDS011;59128;44.642;21.188;2022-07-21T02:52:16;5.18;;;3.35;;
60665;SDS011;59128;44.642;21.188;2022-07-21T02:54:42;6.68;;;4.15;;
60665;SDS011;59128;44.642;21.188;2022-07-21T02:57:08;5.40;;;3.60;;
60665;SDS011;59128;44.642;21.188;2022-07-21T02:59:34;5.38;;;3.45;;
60665;SDS011;59128;44.642;21.188;2022-07-21T03:02:00;5.80;;;3.88;;
60665;SDS011;59128;44.642;21.188;2022-07-21T03:04:26;5.95;;;3.85;;
60665;SDS011;59128;44.642;21.188;2022-07-21T03:06:52;5.45;;;3.70;;
60665;SDS011;59128;44.642;21.188;2022-07-21T03:09:18;7.05;;;4.03;;
60665;SDS011;59128;44.642;21.188;2022-07-21T03:11:44;5.32;;;3.55;;
60665;SDS011;59128;44.642;21.188;2022-07-21T03:14:10;6.13;;;3.70;;
60665;SDS011;59128;44.642;21.188;2022-07-21T03:16:36;4.95;;;3.42;;
60665;SDS011;59128;44.642;21.188;2022-07-21T03:19:02;6.80;;;3.97;;
60665;SDS011;59128;44.642;21.188;2022-07-21T03:21:28;5.30;;;3.63;;
60665;SDS011;59128;44.642;21.188;2022-07-21T03:23:54;5.63;;;3.90;;
60665;SDS011;59128;44.642;21.188;2022-07-21T03:26:20;7.00;;;4.15;;
60665;SDS011;59128;44.642;21.188;2022-07-21T03:28:46;6.37;;;3.93;;
60665;SDS011;59128;44.642;21.188;2022-07-21T03:31:13;5.40;;;4.03;;
60665;SDS011;59128;44.642;21.188;2022-07-21T03:33:39;5.60;;;4.20;;
60665;SDS011;59128;44.642;21.188;2022-07-21T03:36:05;8.63;;;3.95;;
60665;SDS011;59128;44.642;21.188;2022-07-21T03:38:32;7.55;;;3.75;;
60665;SDS011;59128;44.642;21.188;2022-07-21T03:40:58;6.82;;;4.15;;
60665;SDS011;59128;44.642;21.188;2022-07-21T03:43:24;5.82;;;3.70;;
60665;SDS011;59128;44.642;21.188;2022-07-21T03:45:50;5.85;;;3.53;;
60665;SDS011;59128;44.642;21.188;2022-07-21T03:48:16;6.38;;;3.67;;
60665;SDS011;59128;44.642;21.188;2022-07-21T03:50:42;6.68;;;3.30;;
60665;SDS011;59128;44.642;21.188;2022-07-21T03:53:08;7.43;;;3.83;;
60665;SDS011;59128;44.642;21.188;2022-07-21T03:55:34;6.97;;;3.78;;
60665;SDS011;59128;44.642;21.188;2022-07-21T03:58:02;7.47;;;3.97;;
60665;SDS011;59128;44.642;21.188;2022-07-21T04:00:36;6.65;;;3.95;;
60665;SDS011;59128;44.642;21.188;2022-07-21T04:03:03;16.58;;;4.40;;
60665;SDS011;59128;44.642;21.188;2022-07-21T04:05:30;76.55;;;10.10;;
60665;SDS011;59128;44.642;21.188;2022-07-21T04:07:56;112.88;;;13.35;;
60665;SDS011;59128;44.642;21.188;2022-07-21T04:10:23;50.05;;;8.35;;
60665;SDS011;59128;44.642;21.188;2022-07-21T04:12:50;46.85;;;8.07;;
60665;SDS011;59128;44.642;21.188;2022-07-21T04:15:16;25.15;;;5.53;;
60665;SDS011;59128;44.642;21.188;2022-07-21T04:17:43;11.20;;;4.15;;
60665;SDS011;59128;44.642;21.188;2022-07-21T04:20:10;8.65;;;3.90;;
60665;SDS011;59128;44.642;21.188;2022-07-21T04:22:36;4.95;;;3.10;;
60665;SDS011;59128;44.642;21.188;2022-07-21T04:25:03;6.20;;;3.60;;
60665;SDS011;59128;44.642;21.188;2022-07-21T04:27:30;6.60;;;3.20;;
60665;SDS011;59128;44.642;21.188;2022-07-21T04:29:56;5.95;;;3.42;;
60665;SDS011;59128;44.642;21.188;2022-07-21T04:32:22;6.05;;;2.97;;
60665;SDS011;59128;44.642;21.188;2022-07-21T04:34:48;4.82;;;2.78;;
60665;SDS011;59128;44.642;21.188;2022-07-21T04:37:14;6.35;;;3.30;;
60665;SDS011;59128;44.642;21.188;2022-07-21T04:39:41;6.13;;;3.38;;
60665;SDS011;59128;44.642;21.188;2022-07-21T04:42:07;5.60;;;3.07;;
60665;SDS011;59128;44.642;21.188;2022-07-21T04:44:33;10.53;;;3.60;;
60665;SDS011;59128;44.642;21.188;2022-07-21T04:46:59;11.93;;;3.20;;
60665;SDS011;59128;44.642;21.188;2022-07-21T04:49:25;10.13;;;2.92;;
60665;SDS011;59128;44.642;21.188;2022-07-21T04:51:51;8.10;;;3.50;;
60665;SDS011;59128;44.642;21.188;2022-07-21T04:54:17;5.30;;;2.65;;
60665;SDS011;59128;44.642;21.188;2022-07-21T04:56:43;6.32;;;2.92;;
60665;SDS011;59128;44.642;21.188;2022-07-21T04:59:10;7.45;;;3.10;;
60665;SDS011;59128;44.642;21.188;2022-07-21T05:01:36;5.10;;;2.70;;
60665;SDS011;59128;44.642;21.188;2022-07-21T05:04:03;6.18;;;2.83;;
60665;SDS011;59128;44.642;21.188;2022-07-21T05:06:29;6.55;;;3.30;;
60665;SDS011;59128;44.642;21.188;2022-07-21T05:08:55;5.10;;;2.90;;
60665;SDS011;59128;44.642;21.188;2022-07-21T05:11:21;6.32;;;3.00;;
60665;SDS011;59128;44.642;21.188;2022-07-21T05:13:47;5.70;;;3.20;;
60665;SDS011;59128;44.642;21.188;2022-07-21T05:16:14;4.80;;;3.10;;
60665;SDS011;59128;44.642;21.188;2022-07-21T05:18:40;7.87;;;3.57;;
60665;SDS011;59128;44.642;21.188;2022-07-21T05:21:06;5.35;;;3.80;;
60665;SDS011;59128;44.642;21.188;2022-07-21T05:23:32;5.13;;;3.50;;
60665;SDS011;59128;44.642;21.188;2022-07-21T05:25:58;9.32;;;3.70;;
60665;SDS011;59128;44.642;21.188;2022-07-21T05:28:24;7.38;;;3.50;;
60665;SDS011;59128;44.642;21.188;2022-07-21T05:30:50;6.97;;;3.80;;
60665;SDS011;59128;44.642;21.188;2022-07-21T05:33:16;6.50;;;4.18;;
60665;SDS011;59128;44.642;21.188;2022-07-21T05:35:42;10.95;;;4.20;;
60665;SDS011;59128;44.642;21.188;2022-07-21T05:38:08;4.65;;;3.78;;
60665;SDS011;59128;44.642;21.188;2022-07-21T05:40:34;7.47;;;3.97;;
60665;SDS011;59128;44.642;21.188;2022-07-21T05:43:00;6.72;;;4.20;;
60665;SDS011;59128;44.642;21.188;2022-07-21T05:45:26;17.00;;;4.38;;
60665;SDS011;59128;44.642;21.188;2022-07-21T05:47:52;8.60;;;4.05;;
60665;SDS011;59128;44.642;21.188;2022-07-21T05:50:18;5.65;;;3.80;;
60665;SDS011;59128;44.642;21.188;2022-07-21T05:52:44;5.78;;;4.05;;
60665;SDS011;59128;44.642;21.188;2022-07-21T05:55:10;6.60;;;4.60;;
60665;SDS011;59128;44.642;21.188;2022-07-21T05:57:37;6.50;;;4.43;;
60665;SDS011;59128;44.642;21.188;2022-07-21T06:00:04;9.82;;;4.60;;
60665;SDS011;59128;44.642;21.188;2022-07-21T06:02:30;6.78;;;4.07;;
60665;SDS011;59128;44.642;21.188;2022-07-21T06:04:56;7.10;;;4.47;;
60665;SDS011;59128;44.642;21.188;2022-07-21T06:07:23;7.00;;;3.97;;
60665;SDS011;59128;44.642;21.188;2022-07-21T06:09:49;6.83;;;4.30;;
60665;SDS011;59128;44.642;21.188;2022-07-21T06:12:15;7.47;;;3.93;;
60665;SDS011;59128;44.642;21.188;2022-07-21T06:14:41;9.70;;;4.60;;
60665;SDS011;59128;44.642;21.188;2022-07-21T06:17:07;8.57;;;4.23;;
60665;SDS011;59128;44.642;21.188;2022-07-21T06:19:33;7.88;;;4.22;;
60665;SDS011;59128;44.642;21.188;2022-07-21T06:21:59;14.65;;;4.38;;
60665;SDS011;59128;44.642;21.188;2022-07-21T06:24:27;7.13;;;4.40;;
60665;SDS011;59128;44.642;21.188;2022-07-21T06:26:53;7.20;;;4.00;;
60665;SDS011;59128;44.642;21.188;2022-07-21T06:29:21;8.57;;;3.97;;
60665;SDS011;59128;44.642;21.188;2022-07-21T06:31:47;6.72;;;3.35;;
60665;SDS011;59128;44.642;21.188;2022-07-21T06:34:13;6.90;;;3.53;;
60665;SDS011;59128;44.642;21.188;2022-07-21T06:36:39;6.23;;;3.37;;
60665;SDS011;59128;44.642;21.188;2022-07-21T06:39:05;6.33;;;3.60;;
60665;SDS011;59128;44.642;21.188;2022-07-21T06:41:31;7.57;;;3.57;;
60665;SDS011;59128;44.642;21.188;2022-07-21T06:43:57;5.13;;;3.43;;
60665;SDS011;59128;44.642;21.188;2022-07-21T06:46:23;6.05;;;4.10;;
60665;SDS011;59128;44.642;21.188;2022-07-21T06:48:50;10.05;;;4.03;;
60665;SDS011;59128;44.642;21.188;2022-07-21T06:51:16;6.00;;;3.67;;
60665;SDS011;59128;44.642;21.188;2022-07-21T06:53:42;4.25;;;3.10;;
60665;SDS011;59128;44.642;21.188;2022-07-21T06:56:08;7.50;;;3.20;;
60665;SDS011;59128;44.642;21.188;2022-07-21T06:58:34;5.85;;;2.92;;
60665;SDS011;59128;44.642;21.188;2022-07-21T07:01:00;9.77;;;3.40;;
60665;SDS011;59128;44.642;21.188;2022-07-21T07:03:26;5.75;;;3.63;;
60665;SDS011;59128;44.642;21.188;2022-07-21T07:05:53;6.45;;;2.83;;
60665;SDS011;59128;44.642;21.188;2022-07-21T07:08:19;5.55;;;3.17;;
60665;SDS011;59128;44.642;21.188;2022-07-21T07:10:46;9.18;;;2.90;;
60665;SDS011;59128;44.642;21.188;2022-07-21T07:13:12;4.20;;;2.97;;
60665;SDS011;59128;44.642;21.188;2022-07-21T07:15:40;5.88;;;2.97;;
60665;SDS011;59128;44.642;21.188;2022-07-21T07:18:06;5.55;;;2.60;;
60665;SDS011;59128;44.642;21.188;2022-07-21T07:20:32;5.15;;;3.58;;
60665;SDS011;59128;44.642;21.188;2022-07-21T07:22:58;4.85;;;3.03;;
60665;SDS011;59128;44.642;21.188;2022-07-21T07:25:24;8.48;;;4.45;;
60665;SDS011;59128;44.642;21.188;2022-07-21T07:27:50;8.82;;;3.25;;
60665;SDS011;59128;44.642;21.188;2022-07-21T07:30:17;4.63;;;2.65;;
60665;SDS011;59128;44.642;21.188;2022-07-21T07:32:44;10.45;;;3.38;;
60665;SDS011;59128;44.642;21.188;2022-07-21T07:35:12;5.00;;;3.17;;
60665;SDS011;59128;44.642;21.188;2022-07-21T07:37:39;9.93;;;3.22;;
60665;SDS011;59128;44.642;21.188;2022-07-21T07:40:06;11.95;;;2.70;;
60665;SDS011;59128;44.642;21.188;2022-07-21T07:42:33;12.27;;;3.80;;
60665;SDS011;59128;44.642;21.188;2022-07-21T07:44:59;6.75;;;3.25;;
60665;SDS011;59128;44.642;21.188;2022-07-21T07:47:25;7.75;;;3.60;;
60665;SDS011;59128;44.642;21.188;2022-07-21T07:49:52;5.90;;;3.15;;
60665;SDS011;59128;44.642;21.188;2022-07-21T07:52:21;11.38;;;3.58;;
60665;SDS011;59128;44.642;21.188;2022-07-21T07:54:47;16.67;;;3.47;;
60665;SDS011;59128;44.642;21.188;2022-07-21T07:57:13;8.43;;;3.35;;
60665;SDS011;59128;44.642;21.188;2022-07-21T07:59:40;9.25;;;2.83;;
60665;SDS011;59128;44.642;21.188;2022-07-21T08:02:06;9.43;;;3.03;;
60665;SDS011;59128;44.642;21.188;2022-07-21T08:04:32;9.85;;;3.17;;
60665;SDS011;59128;44.642;21.188;2022-07-21T08:06:58;6.82;;;3.00;;
60665;SDS011;59128;44.642;21.188;2022-07-21T08:09:24;10.45;;;3.78;;
60665;SDS011;59128;44.642;21.188;2022-07-21T08:11:50;6.78;;;3.13;;
60665;SDS011;59128;44.642;21.188;2022-07-21T08:14:17;9.45;;;3.20;;
60665;SDS011;59128;44.642;21.188;2022-07-21T08:16:43;12.80;;;3.20;;
60665;SDS011;59128;44.642;21.188;2022-07-21T08:19:10;14.55;;;4.18;;
60665;SDS011;59128;44.642;21.188;2022-07-21T08:21:36;16.70;;;3.03;;
60665;SDS011;59128;44.642;21.188;2022-07-21T08:24:02;4.82;;;2.75;;
60665;SDS011;59128;44.642;21.188;2022-07-21T08:26:28;5.63;;;3.20;;
60665;SDS011;59128;44.642;21.188;2022-07-21T08:28:55;12.93;;;3.38;;
60665;SDS011;59128;44.642;21.188;2022-07-21T08:31:21;8.73;;;2.80;;
60665;SDS011;59128;44.642;21.188;2022-07-21T08:33:48;10.85;;;3.63;;
60665;SDS011;59128;44.642;21.188;2022-07-21T08:36:15;10.50;;;3.22;;
60665;SDS011;59128;44.642;21.188;2022-07-21T08:38:41;4.03;;;2.95;;
60665;SDS011;59128;44.642;21.188;2022-07-21T08:41:07;7.70;;;3.00;;
60665;SDS011;59128;44.642;21.188;2022-07-21T08:43:33;9.10;;;2.38;;
60665;SDS011;59128;44.642;21.188;2022-07-21T08:45:59;5.45;;;2.30;;
60665;SDS011;59128;44.642;21.188;2022-07-21T08:48:26;4.57;;;2.33;;
60665;SDS011;59128;44.642;21.188;2022-07-21T08:50:54;10.57;;;2.80;;
60665;SDS011;59128;44.642;21.188;2022-07-21T08:53:20;6.50;;;2.70;;
60665;SDS011;59128;44.642;21.188;2022-07-21T08:55:46;8.63;;;3.13;;
60665;SDS011;59128;44.642;21.188;2022-07-21T08:58:13;4.90;;;2.65;;
60665;SDS011;59128;44.642;21.188;2022-07-21T09:00:40;3.58;;;2.80;;
60665;SDS011;59128;44.642;21.188;2022-07-21T09:03:16;6.97;;;2.65;;
60665;SDS011;59128;44.642;21.188;2022-07-21T09:05:43;9.15;;;2.80;;
60665;SDS011;59128;44.642;21.188;2022-07-21T09:08:34;14.60;;;3.70;;
60665;SDS011;59128;44.642;21.188;2022-07-21T09:13:36;5.38;;;2.85;;
60665;SDS011;59128;44.642;21.188;2022-07-21T09:16:02;2.80;;;2.35;;
60665;SDS011;59128;44.642;21.188;2022-07-21T09:18:28;6.47;;;2.78;;
60665;SDS011;59128;44.642;21.188;2022-07-21T09:20:54;4.35;;;2.63;;
60665;SDS011;59128;44.642;21.188;2022-07-21T09:23:22;10.07;;;2.85;;
60665;SDS011;59128;44.642;21.188;2022-07-21T09:25:50;8.68;;;2.75;;
60665;SDS011;59128;44.642;21.188;2022-07-21T09:28:23;4.68;;;2.42;;
60665;SDS011;59128;44.642;21.188;2022-07-21T09:33:19;6.80;;;2.67;;
60665;SDS011;59128;44.642;21.188;2022-07-21T09:35:56;8.80;;;2.65;;
60665;SDS011;59128;44.642;21.188;2022-07-21T09:38:22;7.20;;;2.80;;
60665;SDS011;59128;44.642;21.188;2022-07-21T09:40:48;5.57;;;2.55;;
60665;SDS011;59128;44.642;21.188;2022-07-21T09:46:00;3.45;;;2.40;;
60665;SDS011;59128;44.642;21.188;2022-07-21T09:48:33;9.10;;;2.80;;
60665;SDS011;59128;44.642;21.188;2022-07-21T09:53:26;4.30;;;2.40;;
60665;SDS011;59128;44.642;21.188;2022-07-21T09:55:52;3.42;;;2.28;;
60665;SDS011;59128;44.642;21.188;2022-07-21T09:58:18;10.73;;;2.17;;
60665;SDS011;59128;44.642;21.188;2022-07-21T10:00:44;3.58;;;2.05;;
60665;SDS011;59128;44.642;21.188;2022-07-21T10:03:10;5.78;;;2.20;;
60665;SDS011;59128;44.642;21.188;2022-07-21T10:05:37;3.75;;;2.35;;
60665;SDS011;59128;44.642;21.188;2022-07-21T10:08:03;3.20;;;1.98;;
60665;SDS011;59128;44.642;21.188;2022-07-21T10:10:29;3.92;;;1.90;;
60665;SDS011;59128;44.642;21.188;2022-07-21T10:12:55;3.33;;;2.20;;
60665;SDS011;59128;44.642;21.188;2022-07-21T10:15:21;4.75;;;1.88;;
60665;SDS011;59128;44.642;21.188;2022-07-21T10:17:48;3.90;;;2.55;;
60665;SDS011;59128;44.642;21.188;2022-07-21T10:20:30;4.82;;;2.20;;
60665;SDS011;59128;44.642;21.188;2022-07-21T10:23:12;7.18;;;2.33;;
60665;SDS011;59128;44.642;21.188;2022-07-21T10:25:40;4.82;;;1.80;;
60665;SDS011;59128;44.642;21.188;2022-07-21T10:30:47;2.80;;;1.80;;
60665;SDS011;59128;44.642;21.188;2022-07-21T10:33:14;4.50;;;2.10;;
60665;SDS011;59128;44.642;21.188;2022-07-21T10:35:42;3.55;;;2.22;;
60665;SDS011;59128;44.642;21.188;2022-07-21T10:38:24;2.50;;;1.95;;
60665;SDS011;59128;44.642;21.188;2022-07-21T10:45:50;3.85;;;1.63;;
60665;SDS011;59128;44.642;21.188;2022-07-21T10:51:01;4.45;;;1.90;;
60665;SDS011;59128;44.642;21.188;2022-07-21T10:53:28;5.25;;;2.17;;
60665;SDS011;59128;44.642;21.188;2022-07-21T10:55:54;3.08;;;2.65;;
60665;SDS011;59128;44.642;21.188;2022-07-21T11:01:00;2.97;;;2.25;;
60665;SDS011;59128;44.642;21.188;2022-07-21T11:03:27;4.93;;;2.05;;
60665;SDS011;59128;44.642;21.188;2022-07-21T11:08:33;3.00;;;1.90;;
60665;SDS011;59128;44.642;21.188;2022-07-21T11:11:09;3.65;;;2.03;;
60665;SDS011;59128;44.642;21.188;2022-07-21T11:16:21;7.50;;;2.55;;
60665;SDS011;59128;44.642;21.188;2022-07-21T11:18:47;3.22;;;2.20;;
60665;SDS011;59128;44.642;21.188;2022-07-21T11:21:13;3.80;;;2.00;;
60665;SDS011;59128;44.642;21.188;2022-07-21T11:23:44;11.50;;;2.40;;
60665;SDS011;59128;44.642;21.188;2022-07-21T11:26:11;4.55;;;1.85;;
60665;SDS011;59128;44.642;21.188;2022-07-21T11:28:37;3.50;;;2.42;;
60665;SDS011;59128;44.642;21.188;2022-07-21T11:31:17;3.38;;;2.20;;
60665;SDS011;59128;44.642;21.188;2022-07-21T11:33:44;3.75;;;2.33;;
60665;SDS011;59128;44.642;21.188;2022-07-21T11:36:21;3.45;;;2.20;;
60665;SDS011;59128;44.642;21.188;2022-07-21T11:39:09;4.63;;;2.13;;
60665;SDS011;59128;44.642;21.188;2022-07-21T11:41:34;5.72;;;2.72;;
60665;SDS011;59128;44.642;21.188;2022-07-21T11:44:01;5.20;;;2.20;;
60665;SDS011;59128;44.642;21.188;2022-07-21T11:46:28;2.58;;;2.17;;
60665;SDS011;59128;44.642;21.188;2022-07-21T11:49:04;5.28;;;2.20;;
60665;SDS011;59128;44.642;21.188;2022-07-21T11:51:30;4.15;;;2.13;;
60665;SDS011;59128;44.642;21.188;2022-07-21T11:53:56;6.72;;;2.47;;
60665;SDS011;59128;44.642;21.188;2022-07-21T11:56:22;6.00;;;2.65;;
60665;SDS011;59128;44.642;21.188;2022-07-21T11:58:49;3.38;;;2.38;;
60665;SDS011;59128;44.642;21.188;2022-07-21T12:01:15;4.43;;;2.47;;
60665;SDS011;59128;44.642;21.188;2022-07-21T12:03:48;5.22;;;2.72;;
60665;SDS011;59128;44.642;21.188;2022-07-21T12:06:14;4.32;;;2.40;;
60665;SDS011;59128;44.642;21.188;2022-07-21T12:08:41;12.00;;;2.50;;
60665;SDS011;59128;44.642;21.188;2022-07-21T12:11:08;17.63;;;3.17;;
60665;SDS011;59128;44.642;21.188;2022-07-21T12:14:10;7.55;;;2.60;;
60665;SDS011;59128;44.642;21.188;2022-07-21T12:16:29;4.13;;;2.28;;
60665;SDS011;59128;44.642;21.188;2022-07-21T12:19:08;23.10;;;3.58;;
60665;SDS011;59128;44.642;21.188;2022-07-21T12:21:42;8.63;;;2.95;;
60665;SDS011;59128;44.642;21.188;2022-07-21T12:24:09;8.45;;;2.47;;
60665;SDS011;59128;44.642;21.188;2022-07-21T12:26:35;5.63;;;2.30;;
60665;SDS011;59128;44.642;21.188;2022-07-21T12:29:01;3.05;;;2.20;;
60665;SDS011;59128;44.642;21.188;2022-07-21T12:31:27;19.33;;;2.58;;
60665;SDS011;59128;44.642;21.188;2022-07-21T12:33:54;7.47;;;2.50;;
60665;SDS011;59128;44.642;21.188;2022-07-21T12:36:23;7.45;;;2.40;;
60665;SDS011;59128;44.642;21.188;2022-07-21T12:38:51;5.38;;;2.42;;
60665;SDS011;59128;44.642;21.188;2022-07-21T12:41:20;3.00;;;2.00;;
60665;SDS011;59128;44.642;21.188;2022-07-21T12:43:54;7.60;;;2.40;;
60665;SDS011;59128;44.642;21.188;2022-07-21T12:48:46;7.72;;;2.65;;
60665;SDS011;59128;44.642;21.188;2022-07-21T12:56:04;4.00;;;2.72;;
60665;SDS011;59128;44.642;21.188;2022-07-21T12:58:31;4.20;;;2.50;;
60665;SDS011;59128;44.642;21.188;2022-07-21T13:00:57;3.95;;;2.70;;
60665;SDS011;59128;44.642;21.188;2022-07-21T13:03:24;5.93;;;2.75;;
60665;SDS011;59128;44.642;21.188;2022-07-21T13:05:50;6.80;;;2.70;;
60665;SDS011;59128;44.642;21.188;2022-07-21T13:08:16;5.88;;;2.90;;
60665;SDS011;59128;44.642;21.188;2022-07-21T13:10:43;6.75;;;2.58;;
60665;SDS011;59128;44.642;21.188;2022-07-21T13:13:09;5.40;;;2.55;;
60665;SDS011;59128;44.642;21.188;2022-07-21T13:15:35;3.75;;;2.72;;
60665;SDS011;59128;44.642;21.188;2022-07-21T13:18:02;6.45;;;2.67;;
60665;SDS011;59128;44.642;21.188;2022-07-21T13:20:28;5.45;;;2.42;;
60665;SDS011;59128;44.642;21.188;2022-07-21T13:22:54;29.10;;;4.20;;
60665;SDS011;59128;44.642;21.188;2022-07-21T13:25:20;7.90;;;2.65;;
60665;SDS011;59128;44.642;21.188;2022-07-21T13:27:46;7.55;;;2.75;;
60665;SDS011;59128;44.642;21.188;2022-07-21T13:30:12;9.70;;;2.83;;
60665;SDS011;59128;44.642;21.188;2022-07-21T13:32:38;6.20;;;2.60;;
60665;SDS011;59128;44.642;21.188;2022-07-21T13:35:05;4.43;;;2.42;;
60665;SDS011;59128;44.642;21.188;2022-07-21T13:37:32;4.68;;;2.35;;
60665;SDS011;59128;44.642;21.188;2022-07-21T13:39:58;5.85;;;2.50;;
60665;SDS011;59128;44.642;21.188;2022-07-21T13:42:24;5.38;;;2.30;;
60665;SDS011;59128;44.642;21.188;2022-07-21T13:44:50;4.03;;;2.65;;
60665;SDS011;59128;44.642;21.188;2022-07-21T13:47:16;8.77;;;3.15;;
60665;SDS011;59128;44.642;21.188;2022-07-21T13:49:42;6.85;;;2.53;;
60665;SDS011;59128;44.642;21.188;2022-07-21T13:52:08;4.13;;;2.40;;
60665;SDS011;59128;44.642;21.188;2022-07-21T13:54:34;4.13;;;2.72;;
60665;SDS011;59128;44.642;21.188;2022-07-21T13:57:00;5.78;;;2.67;;
60665;SDS011;59128;44.642;21.188;2022-07-21T13:59:26;5.53;;;2.90;;
60665;SDS011;59128;44.642;21.188;2022-07-21T14:01:53;4.95;;;2.47;;
60665;SDS011;59128;44.642;21.188;2022-07-21T14:04:19;5.85;;;2.90;;
60665;SDS011;59128;44.642;21.188;2022-07-21T14:06:45;9.10;;;2.50;;
60665;SDS011;59128;44.642;21.188;2022-07-21T14:09:13;3.22;;;2.20;;
60665;SDS011;59128;44.642;21.188;2022-07-21T14:11:39;4.10;;;2.28;;
60665;SDS011;59128;44.642;21.188;2022-07-21T14:14:05;5.65;;;2.60;;
60665;SDS011;59128;44.642;21.188;2022-07-21T14:16:31;3.33;;;2.40;;
60665;SDS011;59128;44.642;21.188;2022-07-21T14:18:58;5.65;;;2.42;;
60665;SDS011;59128;44.642;21.188;2022-07-21T14:21:25;6.13;;;2.75;;
60665;SDS011;59128;44.642;21.188;2022-07-21T14:23:51;2.70;;;2.10;;
60665;SDS011;59128;44.642;21.188;2022-07-21T14:26:37;3.55;;;2.05;;
60665;SDS011;59128;44.642;21.188;2022-07-21T14:29:04;4.82;;;2.25;;
60665;SDS011;59128;44.642;21.188;2022-07-21T14:31:31;5.22;;;2.50;;
60665;SDS011;59128;44.642;21.188;2022-07-21T14:33:57;3.65;;;2.10;;
60665;SDS011;59128;44.642;21.188;2022-07-21T14:36:23;9.68;;;2.30;;
60665;SDS011;59128;44.642;21.188;2022-07-21T14:38:49;7.88;;;2.50;;
60665;SDS011;59128;44.642;21.188;2022-07-21T14:41:15;4.10;;;2.25;;
60665;SDS011;59128;44.642;21.188;2022-07-21T14:43:41;3.72;;;2.45;;
60665;SDS011;59128;44.642;21.188;2022-07-21T14:46:07;4.82;;;2.60;;
60665;SDS011;59128;44.642;21.188;2022-07-21T14:48:33;4.32;;;2.55;;
60665;SDS011;59128;44.642;21.188;2022-07-21T14:50:59;15.70;;;3.33;;
60665;SDS011;59128;44.642;21.188;2022-07-21T14:53:25;4.55;;;2.58;;
60665;SDS011;59128;44.642;21.188;2022-07-21T14:55:51;6.22;;;3.00;;
60665;SDS011;59128;44.642;21.188;2022-07-21T14:58:17;10.10;;;3.35;;
60665;SDS011;59128;44.642;21.188;2022-07-21T15:00:43;6.82;;;2.90;;
60665;SDS011;59128;44.642;21.188;2022-07-21T15:03:09;5.65;;;2.42;;
60665;SDS011;59128;44.642;21.188;2022-07-21T15:05:35;9.43;;;2.67;;
60665;SDS011;59128;44.642;21.188;2022-07-21T15:08:01;7.18;;;2.53;;